Time;durP1;ratioP1;P1;durP2;ratioP2;P2;SDS_P1;SDS_P2;PMS_P1;PMS_P2;Temp;Humidity;BMP_temperature;BMP_pressure;BME280_temperature;BME280_humidity;BME280_pressure;Samples;Min_cycle;Max_cycle;Signal;HPM_P1;HPM_P2
2023/01/11 00:01:01;;;;;;;1.43;0.93;;;9.50;99.90;;;;;;4906621;29;20535;-71
2023/01/11 00:03:26;;;;;;;0.90;0.80;;;9.40;99.90;;;;;;4909278;29;20195;-71
2023/01/11 00:05:55;;;;;;;1.67;1.00;;;9.50;99.90;;;;;;4910888;29;20188;-71
2023/01/11 00:08:23;;;;;;;1.40;0.93;;;9.50;99.90;;;;;;4899035;29;20566;-71
2023/01/11 00:10:49;;;;;;;1.60;1.03;;;9.50;99.90;;;;;;4897985;29;20851;-71
2023/01/11 00:13:14;;;;;;;0.90;0.73;;;9.70;99.90;;;;;;4897853;29;20475;-72
2023/01/11 00:15:40;;;;;;;1.50;1.00;;;9.70;99.90;;;;;;4898772;29;20212;-72
2023/01/11 00:18:06;;;;;;;1.00;0.90;;;9.70;99.90;;;;;;4900517;29;20226;-72
2023/01/11 00:20:32;;;;;;;0.97;0.80;;;9.70;99.90;;;;;;4901917;29;20204;-72
2023/01/11 00:22:57;;;;;;;2.03;0.90;;;9.60;99.90;;;;;;4906957;29;20188;-72
2023/01/11 00:25:23;;;;;;;1.60;0.80;;;9.50;99.90;;;;;;4907570;29;20486;-71
2023/01/11 00:27:49;;;;;;;4.73;1.30;;;9.50;99.90;;;;;;4905968;29;20223;-72
2023/01/11 00:30:16;;;;;;;0.90;0.63;;;9.60;99.90;;;;;;4904121;29;20191;-72
2023/01/11 00:32:42;;;;;;;1.57;0.90;;;9.70;99.90;;;;;;4902302;29;20264;-71
2023/01/11 00:35:11;;;;;;;1.13;0.80;;;9.70;99.90;;;;;;4901365;29;20479;-72
2023/01/11 00:37:36;;;;;;;1.50;1.07;;;9.60;99.90;;;;;;4903170;29;20733;-72
2023/01/11 00:40:02;;;;;;;0.90;0.80;;;9.60;99.90;;;;;;4902309;29;20436;-72
2023/01/11 00:47:56;;;;;;;0.90;0.70;;;9.70;99.90;;;;;;4914948;29;20447;-71
2023/01/11 00:50:30;;;;;;;1.97;1.00;;;9.70;99.90;;;;;;4912951;29;20810;-71
2023/01/11 00:52:57;;;;;;;1.00;0.70;;;9.60;99.90;;;;;;4910318;29;20180;-71
2023/01/11 00:55:23;;;;;;;1.30;0.97;;;9.60;99.90;;;;;;4911719;29;20435;-71
2023/01/11 00:57:49;;;;;;;1.47;1.10;;;9.70;99.90;;;;;;4913453;29;20522;-71
2023/01/11 01:00:15;;;;;;;1.00;0.80;;;9.60;99.90;;;;;;4915607;29;20534;-71
2023/01/11 01:02:40;;;;;;;1.03;0.73;;;9.70;99.90;;;;;;4916826;29;20187;-71
2023/01/11 01:05:06;;;;;;;1.10;0.70;;;9.80;99.90;;;;;;4918811;29;20423;-71
2023/01/11 01:07:31;;;;;;;1.00;0.70;;;9.70;99.90;;;;;;4919487;29;20671;-71
2023/01/11 01:09:57;;;;;;;1.37;0.90;;;9.70;99.90;;;;;;4918191;29;20191;-71
2023/01/11 01:15:07;;;;;;;2.37;0.70;;;9.80;99.90;;;;;;4914602;29;20247;-71
2023/01/11 01:17:33;;;;;;;0.90;0.63;;;9.80;99.90;;;;;;4912502;29;20486;-72
2023/01/11 01:19:58;;;;;;;1.93;1.00;;;9.80;99.90;;;;;;4910916;29;20432;-71
2023/01/11 01:22:24;;;;;;;1.33;0.80;;;9.90;99.90;;;;;;4909206;29;20196;-73
2023/01/11 01:24:49;;;;;;;1.00;0.70;;;9.80;99.90;;;;;;4907800;29;20606;-71
2023/01/11 01:27:16;;;;;;;2.43;0.83;;;9.90;99.90;;;;;;4906042;29;20189;-72
2023/01/11 01:29:42;;;;;;;3.40;1.20;;;9.90;99.90;;;;;;4904226;29;20199;-71
2023/01/11 05:30:21;;;;;;;1.00;0.73;;;10.80;99.90;;;;;;5940433;23;20533;-78
2023/01/11 05:32:47;;;;;;;1.10;0.80;;;10.90;99.90;;;;;;4913315;29;21025;-76
2023/01/11 05:35:13;;;;;;;1.10;0.77;;;10.80;99.90;;;;;;4910120;29;20216;-76
2023/01/11 05:37:38;;;;;;;0.90;0.60;;;10.90;99.90;;;;;;4904055;29;20227;-77
2023/01/11 05:40:07;;;;;;;1.10;0.60;;;10.80;99.90;;;;;;4900362;29;20176;-78
2023/01/11 05:42:34;;;;;;;2.50;0.60;;;10.90;99.90;;;;;;4901155;29;20187;-78
2023/01/11 05:47:46;;;;;;;1.00;0.67;;;10.90;99.90;;;;;;4898577;29;20803;-78
2023/01/11 05:50:12;;;;;;;2.60;0.60;;;10.80;99.90;;;;;;4912883;29;20448;-80
2023/01/11 05:52:37;;;;;;;0.90;0.70;;;10.80;99.90;;;;;;4910218;29;20223;-76
2023/01/11 05:55:03;;;;;;;1.10;0.60;;;10.80;99.90;;;;;;4914513;29;20516;-77
2023/01/11 05:57:29;;;;;;;2.20;0.70;;;10.80;99.90;;;;;;4897817;29;20218;-78
2023/01/11 05:59:55;;;;;;;1.00;0.60;;;10.80;99.90;;;;;;4911810;29;20526;-76
2023/01/11 06:02:20;;;;;;;0.93;0.70;;;10.80;99.90;;;;;;4908988;29;20559;-78
2023/01/11 06:04:46;;;;;;;4.30;0.80;;;10.70;99.90;;;;;;4905861;29;20208;-77
2023/01/11 06:07:12;;;;;;;1.30;0.70;;;10.90;99.90;;;;;;4910940;29;20440;-76
2023/01/11 06:09:37;;;;;;;1.63;0.80;;;10.80;99.90;;;;;;4912220;29;20172;-76
2023/01/11 06:12:03;;;;;;;1.00;0.73;;;10.70;99.90;;;;;;4913026;29;20563;-75
2023/01/11 06:14:28;;;;;;;3.20;0.70;;;10.70;99.90;;;;;;4903316;29;20180;-76
2023/01/11 06:16:55;;;;;;;0.90;0.60;;;10.80;99.90;;;;;;4911721;29;20218;-76
2023/01/11 06:19:21;;;;;;;1.53;0.90;;;10.80;99.90;;;;;;4908121;29;20199;-76
2023/01/11 06:21:46;;;;;;;1.50;0.90;;;10.90;99.90;;;;;;4908808;29;20444;-76
2023/01/11 06:24:12;;;;;;;1.63;0.97;;;10.80;99.90;;;;;;4911928;29;20213;-76
2023/01/11 06:26:37;;;;;;;2.40;1.13;;;10.90;99.90;;;;;;4909645;29;20187;-76
2023/01/11 06:29:03;;;;;;;2.27;0.73;;;11.00;99.90;;;;;;4914541;29;20675;-78
2023/01/11 06:31:28;;;;;;;3.60;0.70;;;11.00;99.90;;;;;;4903828;29;20603;-77
2023/01/11 06:33:54;;;;;;;1.40;0.90;;;11.10;99.90;;;;;;4906185;29;20194;-76
2023/01/11 06:36:19;;;;;;;1.10;0.90;;;11.10;99.90;;;;;;4912273;29;20204;-76
2023/01/11 06:38:45;;;;;;;2.07;0.80;;;11.10;99.90;;;;;;4906609;29;20542;-77
2023/01/11 06:41:11;;;;;;;0.90;0.70;;;11.20;99.90;;;;;;4912423;29;20195;-77
2023/01/11 06:43:40;;;;;;;1.00;0.80;;;11.10;99.90;;;;;;4912496;29;20211;-78
2023/01/11 06:46:09;;;;;;;2.13;0.90;;;11.00;99.90;;;;;;4910365;29;20967;-78
2023/01/11 06:48:35;;;;;;;1.60;0.77;;;11.00;99.90;;;;;;4908529;29;20484;-78
2023/01/11 06:51:00;;;;;;;1.53;1.43;;;11.00;99.90;;;;;;4908723;29;20444;-77
2023/01/11 06:53:27;;;;;;;0.90;0.73;;;11.10;99.90;;;;;;4887374;29;20196;-77
2023/01/11 06:55:55;;;;;;;1.47;0.97;;;11.10;99.90;;;;;;4903696;29;20212;-77
2023/01/11 06:58:22;;;;;;;0.90;0.70;;;11.00;99.90;;;;;;4915161;29;20458;-77
2023/01/11 07:00:48;;;;;;;2.80;1.10;;;11.10;99.90;;;;;;4916837;29;20428;-77
2023/01/11 07:03:14;;;;;;;1.73;0.70;;;11.10;99.90;;;;;;4917578;29;20455;-77
2023/01/11 07:05:42;;;;;;;3.43;0.83;;;11.30;99.90;;;;;;4900439;29;20553;-74
2023/01/11 07:08:08;;;;;;;4.03;0.83;;;11.30;99.90;;;;;;4913361;29;20185;-74
2023/01/11 07:10:34;;;;;;;1.30;1.10;;;11.30;99.90;;;;;;4915923;29;20447;-73
2023/01/11 07:12:59;;;;;;;0.90;0.80;;;11.30;99.90;;;;;;4914378;29;20176;-74
2023/01/11 07:15:25;;;;;;;1.80;0.90;;;11.20;99.90;;;;;;4900362;29;20211;-74
2023/01/11 07:17:58;;;;;;;1.40;0.83;;;11.30;99.90;;;;;;4917313;29;20239;-74
2023/01/11 07:20:24;;;;;;;1.13;0.90;;;11.30;99.90;;;;;;4916615;29;20262;-74
2023/01/11 07:22:50;;;;;;;1.87;1.03;;;11.30;99.90;;;;;;4914956;29;20439;-74
2023/01/11 07:25:16;;;;;;;1.50;0.93;;;11.40;99.90;;;;;;4914447;29;20431;-74
2023/01/11 07:27:42;;;;;;;1.53;1.43;;;11.40;99.90;;;;;;4911128;29;20188;-74
2023/01/11 07:30:08;;;;;;;3.13;0.80;;;11.40;99.90;;;;;;4909672;29;20444;-75
2023/01/11 07:32:34;;;;;;;1.63;0.93;;;11.60;99.90;;;;;;4914414;29;20231;-75
2023/01/11 07:35:00;;;;;;;1.20;1.00;;;11.50;99.90;;;;;;4913013;29;20450;-76
2023/01/11 07:37:26;;;;;;;1.57;1.00;;;11.60;99.90;;;;;;4914507;29;20483;-74
2023/01/11 07:39:52;;;;;;;1.07;0.87;;;11.50;99.90;;;;;;4915114;29;20188;-77
2023/01/11 07:45:03;;;;;;;1.83;1.20;;;11.50;99.90;;;;;;4909087;29;20195;-78
2023/01/11 07:47:29;;;;;;;1.30;1.00;;;11.50;99.90;;;;;;4911126;29;20834;-79
2023/01/11 07:49:55;;;;;;;2.10;1.20;;;11.50;99.90;;;;;;4912342;29;20511;-77
2023/01/11 07:52:20;;;;;;;2.13;1.37;;;11.50;99.90;;;;;;4909650;29;20270;-76
2023/01/11 07:54:46;;;;;;;2.30;1.23;;;11.60;99.90;;;;;;4913320;29;20630;-76
2023/01/11 07:57:11;;;;;;;3.40;1.43;;;11.60;99.90;;;;;;4917191;29;20687;-76
2023/01/11 07:59:37;;;;;;;1.60;1.50;;;11.60;99.90;;;;;;4915877;29;20631;-76
2023/01/11 08:02:02;;;;;;;2.63;1.40;;;11.60;99.90;;;;;;4914336;29;20670;-76
2023/01/11 08:04:28;;;;;;;2.67;1.57;;;11.60;99.90;;;;;;4904814;29;20215;-77
2023/01/11 08:06:53;;;;;;;1.47;1.17;;;11.70;99.90;;;;;;4908284;29;20663;-76
2023/01/11 08:09:19;;;;;;;1.10;1.00;;;11.80;99.90;;;;;;4892345;29;20659;-76
2023/01/11 08:14:38;;;;;;;1.30;1.20;;;11.80;99.90;;;;;;4910523;29;20184;-77
2023/01/11 08:17:04;;;;;;;1.63;1.53;;;11.70;99.90;;;;;;4912468;29;20471;-77
2023/01/11 08:19:29;;;;;;;2.03;1.27;;;11.70;99.90;;;;;;4914003;29;20800;-77
2023/01/11 08:21:55;;;;;;;1.97;1.50;;;11.70;99.90;;;;;;4915770;29;20447;-77
2023/01/11 08:24:20;;;;;;;2.33;2.00;;;11.70;99.90;;;;;;4917054;29;20605;-77
2023/01/11 08:26:46;;;;;;;1.87;1.73;;;11.70;99.90;;;;;;4902396;29;20725;-77
2023/01/11 08:29:12;;;;;;;2.37;2.17;;;11.80;99.90;;;;;;4909547;29;20187;-77
2023/01/11 08:31:37;;;;;;;2.10;1.90;;;11.80;99.90;;;;;;4909915;29;20322;-76
2023/01/11 08:34:03;;;;;;;3.03;1.90;;;11.80;99.90;;;;;;4910534;29;20184;-76
2023/01/11 08:36:30;;;;;;;4.00;3.07;;;11.80;99.90;;;;;;4908930;29;20227;-76
2023/01/11 08:38:56;;;;;;;3.80;2.20;;;11.80;99.90;;;;;;4907466;29;20244;-76
2023/01/11 08:41:25;;;;;;;2.57;2.27;;;11.80;99.90;;;;;;4908753;29;20506;-76
2023/01/11 08:43:51;;;;;;;3.57;2.50;;;11.70;99.90;;;;;;4912240;29;20440;-75
2023/01/11 08:46:17;;;;;;;5.93;3.50;;;11.80;99.90;;;;;;4911864;29;20451;-75
2023/01/11 08:48:45;;;;;;;3.33;2.67;;;11.80;99.90;;;;;;4900494;29;20858;-75
2023/01/11 08:51:12;;;;;;;2.90;2.70;;;11.80;99.90;;;;;;4892437;29;20455;-75
2023/01/11 08:53:38;;;;;;;5.60;2.87;;;11.80;99.90;;;;;;4905475;29;20447;-75
2023/01/11 08:56:04;;;;;;;6.80;3.60;;;11.80;99.90;;;;;;4914698;29;21066;-75
2023/01/11 08:58:30;;;;;;;5.50;3.30;;;11.90;99.90;;;;;;4915526;29;20240;-76
2023/01/11 09:01:01;;;;;;;5.53;3.63;;;11.90;99.90;;;;;;4908672;29;20646;-75
2023/01/11 09:03:27;;;;;;;4.57;3.83;;;11.90;99.90;;;;;;4910263;29;20199;-76
2023/01/11 09:06:50;;;;;;;5.57;4.10;;;11.90;99.90;;;;;;4911293;29;20502;-76
2023/01/11 09:09:15;;;;;;;5.40;3.60;;;11.90;99.90;;;;;;4888369;29;20931;-76
2023/01/11 09:11:53;;;;;;;4.57;3.87;;;11.90;99.90;;;;;;4913669;29;20439;-76
2023/01/11 09:14:20;;;;;;;8.40;4.53;;;11.90;99.90;;;;;;4905272;29;20192;-76
2023/01/11 09:16:45;;;;;;;6.30;4.77;;;11.90;99.90;;;;;;4911777;29;20483;-76
2023/01/11 09:19:11;;;;;;;8.20;5.73;;;11.80;99.90;;;;;;4920106;29;20938;-76
2023/01/11 09:21:36;;;;;;;8.53;6.33;;;11.90;99.90;;;;;;4919170;29;20196;-77
2023/01/11 09:24:03;;;;;;;7.50;5.10;;;11.90;99.90;;;;;;4917629;29;20192;-76
2023/01/11 09:26:29;;;;;;;8.00;5.90;;;11.90;99.90;;;;;;4907089;29;20755;-76
2023/01/11 09:28:55;;;;;;;7.57;5.80;;;11.90;99.90;;;;;;4908397;29;20439;-76
2023/01/11 09:31:20;;;;;;;10.33;4.40;;;11.90;99.90;;;;;;4910048;29;20239;-76
2023/01/11 09:33:46;;;;;;;9.77;4.93;;;11.90;99.90;;;;;;4911564;29;20826;-76
2023/01/11 09:36:13;;;;;;;7.50;4.43;;;11.80;99.90;;;;;;4913401;29;20220;-76
2023/01/11 09:38:42;;;;;;;8.83;3.73;;;11.80;99.90;;;;;;4910276;29;20771;-76
2023/01/11 09:41:35;;;;;;;12.03;3.60;;;11.70;99.90;;;;;;4916617;29;20522;-76
2023/01/11 09:44:18;;;;;;;8.23;3.60;;;11.70;99.90;;;;;;4909730;29;20440;-76
2023/01/11 09:46:50;;;;;;;10.20;3.03;;;11.60;99.90;;;;;;4903423;29;20518;-76
2023/01/11 09:49:26;;;;;;;12.37;5.00;;;11.60;99.90;;;;;;4912171;29;20447;-76
2023/01/11 09:52:00;;;;;;;5.10;4.03;;;11.60;99.90;;;;;;4907453;29;20436;-75
2023/01/11 09:54:26;;;;;;;11.40;3.63;;;11.60;99.90;;;;;;4910659;29;20444;-76
2023/01/11 09:57:17;;;;;;;10.87;3.80;;;11.60;99.90;;;;;;4912763;29;20555;-76
2023/01/11 09:59:55;;;;;;;15.07;4.60;;;11.60;99.90;;;;;;4909831;29;20838;-76
2023/01/11 10:02:43;;;;;;;16.83;3.93;;;11.70;99.90;;;;;;4908819;29;20482;-76
2023/01/11 10:05:29;;;;;;;18.87;4.60;;;11.60;99.90;;;;;;4906753;29;20504;-76
2023/01/11 10:07:59;;;;;;;15.63;4.40;;;11.60;99.90;;;;;;4913981;29;20436;-76
2023/01/11 10:10:35;;;;;;;13.00;4.63;;;11.60;99.90;;;;;;4917080;29;20526;-76
2023/01/11 10:13:25;;;;;;;13.80;4.10;;;11.60;99.90;;;;;;4918944;29;20445;-76
2023/01/11 10:16:29;;;;;;;14.27;3.57;;;11.50;99.90;;;;;;4918484;29;20504;-76
2023/01/11 10:19:04;;;;;;;9.23;3.60;;;11.50;99.90;;;;;;4902566;29;20944;-76
2023/01/11 10:21:59;;;;;;;11.80;3.53;;;11.50;99.90;;;;;;4906034;29;20549;-76
2023/01/11 10:24:34;;;;;;;11.90;3.90;;;11.30;99.90;;;;;;4893356;29;20445;-76
2023/01/11 10:27:07;;;;;;;9.33;3.67;;;11.40;99.90;;;;;;4910357;29;20448;-76
2023/01/11 10:32:52;;;;;;;9.47;3.87;;;11.40;99.90;;;;;;4910205;29;20567;-76
2023/01/11 10:38:50;;;;;;;14.20;4.63;;;11.40;99.90;;;;;;4902376;29;20452;-77
2023/01/11 10:41:28;;;;;;;10.00;4.70;;;11.40;99.90;;;;;;4891203;29;20451;-76
2023/01/11 10:44:17;;;;;;;16.80;5.37;;;11.40;99.90;;;;;;4902455;29;20815;-77
2023/01/11 10:46:48;;;;;;;18.53;5.93;;;11.40;99.90;;;;;;4904379;29;20440;-76
2023/01/11 10:49:16;;;;;;;11.97;5.90;;;11.40;99.90;;;;;;4890883;29;20852;-76
2023/01/11 10:51:47;;;;;;;21.30;7.13;;;11.40;99.90;;;;;;4906087;29;20440;-76
2023/01/11 10:54:17;;;;;;;16.07;7.57;;;11.50;99.90;;;;;;4892423;29;20444;-77
2023/01/11 10:56:48;;;;;;;19.13;6.97;;;11.50;99.90;;;;;;4910152;29;20483;-77
2023/01/11 11:00:01;;;;;;;19.80;7.10;;;11.50;99.90;;;;;;4912423;29;20443;-77
2023/01/11 11:03:01;;;;;;;14.80;6.87;;;11.50;99.90;;;;;;4904169;29;20537;-77
2023/01/11 11:05:37;;;;;;;18.73;7.90;;;11.50;99.90;;;;;;4902065;29;20497;-77
2023/01/11 11:08:25;;;;;;;21.47;10.50;;;11.60;99.90;;;;;;4900737;29;20424;-76
2023/01/11 11:11:12;;;;;;;17.43;8.20;;;11.50;99.90;;;;;;4901490;29;20485;-75
2023/01/11 11:13:52;;;;;;;21.70;10.03;;;11.50;99.90;;;;;;4914952;29;20476;-76
2023/01/11 11:16:42;;;;;;;17.10;6.80;;;11.60;99.90;;;;;;4910732;29;20472;-75
2023/01/11 11:19:12;;;;;;;11.57;6.33;;;11.50;99.90;;;;;;4906451;29;20444;-76
2023/01/11 11:21:40;;;;;;;13.53;6.27;;;11.60;99.90;;;;;;4910037;29;20592;-76
2023/01/11 11:24:16;;;;;;;14.03;5.87;;;11.60;99.90;;;;;;4910691;29;20423;-76
2023/01/11 11:26:45;;;;;;;27.70;6.70;;;11.70;99.90;;;;;;4892108;29;20435;-76
2023/01/11 11:29:22;;;;;;;21.80;6.33;;;11.60;99.90;;;;;;4913681;29;20432;-76
2023/01/11 11:31:49;;;;;;;9.40;5.57;;;11.60;99.90;;;;;;4898282;29;21021;-76
2023/01/11 11:34:20;;;;;;;14.77;5.47;;;11.70;99.90;;;;;;4905569;29;20436;-76
2023/01/11 11:36:49;;;;;;;15.80;4.53;;;11.70;99.90;;;;;;4912519;29;20544;-76
2023/01/11 11:39:20;;;;;;;16.23;5.63;;;11.70;99.90;;;;;;4916171;29;20779;-76
2023/01/11 11:41:51;;;;;;;9.83;3.70;;;11.70;99.90;;;;;;4909635;29;20458;-76
2023/01/11 11:44:25;;;;;;;11.60;4.10;;;11.70;99.90;;;;;;4907075;29;20487;-76
2023/01/11 11:47:04;;;;;;;14.10;3.33;;;11.70;99.90;;;;;;4910229;29;20453;-76
2023/01/11 11:49:32;;;;;;;14.73;5.20;;;11.80;99.90;;;;;;4908586;29;20463;-76
2023/01/11 11:52:04;;;;;;;12.40;3.83;;;11.90;99.90;;;;;;4909762;29;20443;-76
2023/01/11 11:54:42;;;;;;;13.90;3.77;;;12.00;99.90;;;;;;4910093;29;20433;-77
2023/01/11 11:57:20;;;;;;;9.63;2.93;;;12.30;99.90;;;;;;4905407;29;20483;-76
2023/01/11 11:59:52;;;;;;;11.47;2.77;;;12.60;99.90;;;;;;4904221;29;20489;-76
2023/01/11 12:02:29;;;;;;;12.13;4.10;;;12.80;99.90;;;;;;4899557;29;20476;-76
2023/01/11 12:04:57;;;;;;;9.97;5.70;;;12.90;99.90;;;;;;4905831;29;20443;-77
2023/01/11 12:07:42;;;;;;;9.50;4.90;;;12.90;99.90;;;;;;4914496;29;20450;-76
2023/01/11 12:10:13;;;;;;;14.03;3.40;;;12.90;99.90;;;;;;4903428;29;20955;-76
2023/01/11 12:13:00;;;;;;;24.97;5.23;;;12.90;99.90;;;;;;4909387;29;20448;-76
2023/01/11 12:15:33;;;;;;;14.57;4.13;;;12.80;99.90;;;;;;4907054;29;20424;-76
2023/01/11 12:18:26;;;;;;;15.13;4.10;;;12.60;99.90;;;;;;4906704;29;20457;-77
2023/01/11 12:20:51;;;;;;;12.75;4.30;;;12.50;99.90;;;;;;4898746;29;20502;-75
2023/01/11 12:23:20;;;;;;;17.40;4.50;;;12.70;99.90;;;;;;4911512;29;20647;-75
2023/01/11 12:26:04;;;;;;;9.70;3.60;;;12.40;99.90;;;;;;4914169;29;20188;-76
2023/01/11 12:29:02;;;;;;;11.93;4.10;;;12.40;99.90;;;;;;4916057;29;20534;-76
2023/01/11 12:32:04;;;;;;;6.10;3.60;;;12.20;99.90;;;;;;4914049;29;20479;-77
2023/01/11 12:34:43;;;;;;;10.43;3.83;;;12.10;99.90;;;;;;4914399;29;20423;-75
2023/01/11 12:37:23;;;;;;;11.13;4.63;;;11.90;99.90;;;;;;4903199;29;20479;-75
2023/01/11 12:40:00;;;;;;;8.77;4.40;;;12.00;99.90;;;;;;4891539;29;20971;-77
2023/01/11 12:42:32;;;;;;;18.80;6.10;;;12.00;99.90;;;;;;4907192;29;20462;-76
2023/01/11 12:45:01;;;;;;;15.37;4.67;;;12.10;99.90;;;;;;4907588;29;20438;-75
2023/01/11 12:47:51;;;;;;;7.87;4.70;;;12.10;99.90;;;;;;4907248;29;20437;-75
2023/01/11 12:50:29;;;;;;;15.10;5.17;;;12.20;99.90;;;;;;4903945;29;20432;-76
2023/01/11 12:53:06;;;;;;;11.40;4.57;;;12.10;99.90;;;;;;4912005;29;20434;-75
2023/01/11 12:55:57;;;;;;;10.00;5.13;;;12.30;99.90;;;;;;4915558;29;20442;-76
2023/01/11 12:58:48;;;;;;;10.20;4.37;;;12.20;99.90;;;;;;4916742;29;20439;-75
2023/01/11 13:01:26;;;;;;;10.73;4.87;;;12.20;99.90;;;;;;4901185;29;20527;-76
2023/01/11 13:04:12;;;;;;;7.20;4.47;;;12.30;99.90;;;;;;4902801;29;20431;-76
2023/01/11 13:07:18;;;;;;;7.90;3.83;;;12.40;99.90;;;;;;4905287;29;20451;-76
2023/01/11 13:10:17;;;;;;;12.37;3.87;;;12.40;99.90;;;;;;4848617;29;20514;-76
2023/01/11 13:13:01;;;;;;;16.60;4.87;;;12.20;99.90;;;;;;4908945;29;20444;-76
2023/01/11 13:15:52;;;;;;;15.40;4.20;;;12.00;99.90;;;;;;4909902;29;20436;-75
2023/01/11 13:18:25;;;;;;;12.83;4.20;;;12.00;99.90;;;;;;4912312;29;20490;-76
2023/01/11 13:21:12;;;;;;;7.33;3.50;;;12.10;99.90;;;;;;4914123;29;20439;-76
2023/01/11 13:23:49;;;;;;;9.03;3.90;;;12.00;99.90;;;;;;4915986;29;20459;-75
2023/01/11 13:26:23;;;;;;;9.17;3.70;;;12.10;99.90;;;;;;4907172;29;20900;-75
2023/01/11 13:28:58;;;;;;;6.60;3.73;;;12.00;99.90;;;;;;4900561;29;20444;-76
2023/01/11 13:31:25;;;;;;;9.30;4.23;;;12.10;99.90;;;;;;4905467;29;20479;-75
2023/01/11 13:34:10;;;;;;;8.77;4.10;;;12.30;99.90;;;;;;4909739;29;20451;-75
2023/01/11 13:36:42;;;;;;;14.80;3.33;;;12.50;99.90;;;;;;4906450;29;20510;-75
2023/01/11 13:39:11;;;;;;;6.10;3.60;;;12.40;99.90;;;;;;4907407;29;20436;-74
2023/01/11 13:41:59;;;;;;;9.73;3.30;;;12.40;99.90;;;;;;4905258;29;20944;-74
2023/01/11 13:44:35;;;;;;;9.10;4.37;;;12.50;99.90;;;;;;4914315;29;20443;-75
2023/01/11 13:47:24;;;;;;;10.47;4.03;;;12.60;99.90;;;;;;4912882;29;20443;-76
2023/01/11 13:49:56;;;;;;;12.40;2.83;;;12.40;99.90;;;;;;4913764;29;20460;-76
2023/01/11 13:52:38;;;;;;;5.00;2.93;;;12.30;99.90;;;;;;4902632;29;20526;-75
2023/01/11 13:55:20;;;;;;;11.60;2.87;;;12.40;99.90;;;;;;4915948;29;20490;-75
2023/01/11 13:57:54;;;;;;;16.80;3.90;;;12.40;99.90;;;;;;4912023;29;20515;-75
2023/01/11 14:00:49;;;;;;;14.40;3.37;;;12.30;99.90;;;;;;4906474;29;20787;-75
2023/01/11 14:03:38;;;;;;;9.77;3.10;;;12.30;99.90;;;;;;4908389;29;20433;-74
2023/01/11 14:06:29;;;;;;;8.30;3.03;;;12.10;99.90;;;;;;4908632;29;20476;-75
2023/01/11 14:09:00;;;;;;;5.17;2.63;;;12.00;99.90;;;;;;4908518;29;20434;-76
2023/01/11 14:11:59;;;;;;;18.43;6.33;;;11.90;99.90;;;;;;4913701;29;20467;-76
2023/01/11 14:14:43;;;;;;;12.30;3.37;;;11.80;99.90;;;;;;4915836;29;20443;-76
2023/01/11 14:17:09;;;;;;;15.90;3.40;;;11.80;99.90;;;;;;4917489;29;20479;-76
2023/01/11 14:19:37;;;;;;;11.57;2.83;;;11.70;99.90;;;;;;4901796;29;20959;-76
2023/01/11 14:22:32;;;;;;;11.77;3.13;;;11.60;99.90;;;;;;4902385;29;20258;-76
2023/01/11 14:25:06;;;;;;;10.90;3.30;;;11.60;99.90;;;;;;4915818;29;20438;-76
2023/01/11 14:27:47;;;;;;;10.93;3.30;;;11.50;99.90;;;;;;4913198;29;20511;-76
2023/01/11 14:30:49;;;;;;;8.93;3.70;;;11.50;99.90;;;;;;4912482;29;20503;-76
2023/01/11 14:33:27;;;;;;;8.87;3.13;;;11.50;99.90;;;;;;4909732;29;20503;-76
2023/01/11 14:36:23;;;;;;;16.20;4.23;;;11.50;99.90;;;;;;4908119;29;20432;-76
2023/01/11 14:39:22;;;;;;;10.10;2.97;;;11.50;99.90;;;;;;4906151;29;20450;-76
2023/01/11 14:42:12;;;;;;;9.37;2.67;;;11.50;99.90;;;;;;4903931;29;20439;-76
2023/01/11 14:45:00;;;;;;;14.00;3.47;;;11.50;99.90;;;;;;4902068;29;20967;-76
2023/01/11 14:47:55;;;;;;;6.50;3.97;;;11.60;99.90;;;;;;4898709;29;20496;-73
2023/01/11 14:50:43;;;;;;;9.33;3.20;;;11.60;99.90;;;;;;4899862;29;20440;-79
2023/01/11 14:53:11;;;;;;;13.37;3.80;;;11.50;99.90;;;;;;4905271;29;20458;-76
2023/01/11 14:55:46;;;;;;;11.60;2.80;;;11.70;99.90;;;;;;4903313;29;20432;-80
2023/01/11 14:58:31;;;;;;;12.73;5.23;;;11.60;99.90;;;;;;4908979;29;20869;-76
2023/01/11 15:00:56;;;;;;;15.90;3.00;;;11.60;99.90;;;;;;4905412;29;20436;-79
2023/01/11 15:03:22;;;;;;;12.13;3.33;;;11.70;99.90;;;;;;4908842;29;20428;-76
2023/01/11 15:05:56;;;;;;;13.53;2.83;;;11.70;99.90;;;;;;4910397;29;20196;-75
2023/01/11 15:08:45;;;;;;;12.53;4.50;;;11.60;99.90;;;;;;4902923;29;20251;-74
2023/01/11 15:11:25;;;;;;;11.97;2.73;;;11.40;99.90;;;;;;4904134;29;20452;-75
2023/01/11 15:13:57;;;;;;;18.60;3.57;;;11.40;99.90;;;;;;4916266;29;20439;-75
2023/01/11 15:19:24;;;;;;;14.57;2.83;;;11.40;99.90;;;;;;4910955;29;20443;-76
2023/01/11 15:21:54;;;;;;;5.53;2.60;;;11.30;99.90;;;;;;4905135;29;20970;-73
2023/01/11 15:24:26;;;;;;;7.40;2.17;;;11.30;99.90;;;;;;4905411;29;20440;-76
2023/01/11 15:26:52;;;;;;;9.20;2.60;;;11.40;99.90;;;;;;4897548;29;20447;-78
2023/01/11 15:29:25;;;;;;;9.27;2.80;;;11.40;99.90;;;;;;4905876;29;20499;-78
2023/01/11 15:32:00;;;;;;;9.53;3.77;;;11.50;99.90;;;;;;4892646;29;20491;-75
2023/01/11 15:34:30;;;;;;;14.13;3.90;;;11.30;99.90;;;;;;4904550;29;20522;-76
2023/01/11 15:36:59;;;;;;;17.83;3.03;;;11.40;99.90;;;;;;4907562;29;20480;-76
2023/01/11 15:39:52;;;;;;;8.17;2.70;;;11.40;99.90;;;;;;4907074;29;20472;-77
2023/01/11 15:42:48;;;;;;;18.67;3.37;;;11.40;99.90;;;;;;4910515;29;20962;-78
2023/01/11 15:46:51;;;;;;;9.90;2.27;;;11.30;99.90;;;;;;4905678;29;20471;-76
2023/01/11 15:48:32;;;;;;;8.47;3.53;;;11.10;99.90;;;;;;4901572;29;20444;-76
2023/01/11 15:51:15;;;;;;;10.40;3.70;;;11.00;99.90;;;;;;4903919;29;20766;-76
2023/01/11 15:54:14;;;;;;;12.10;2.90;;;11.00;99.90;;;;;;4906986;29;20455;-76
2023/01/11 15:56:51;;;;;;;6.23;2.57;;;11.00;99.90;;;;;;4908258;29;20487;-75
2023/01/11 15:59:58;;;;;;;10.83;2.80;;;11.00;99.90;;;;;;4906079;29;20459;-75
2023/01/11 16:03:04;;;;;;;12.03;3.27;;;11.00;99.90;;;;;;4909712;29;20445;-74
2023/01/11 16:05:34;;;;;;;7.60;3.27;;;11.10;99.90;;;;;;4857999;29;20534;-73
2023/01/11 16:08:45;;;;;;;11.53;4.10;;;11.10;99.90;;;;;;4890481;29;20445;-75
2023/01/11 16:11:35;;;;;;;9.85;3.72;;;11.00;99.90;;;;;;4884953;29;20449;-77
2023/01/11 16:14:38;;;;;;;10.70;3.20;;;10.90;99.90;;;;;;4908819;29;20203;-81
2023/01/11 16:17:11;;;;;;;16.00;3.80;;;10.90;99.90;;;;;;4891690;29;20460;-78
2023/01/11 16:19:41;;;;;;;12.43;3.60;;;10.90;99.90;;;;;;4906585;29;20851;-79
2023/01/11 16:22:15;;;;;;;6.37;4.60;;;10.80;99.90;;;;;;4906302;29;20496;-78
2023/01/11 16:24:45;;;;;;;13.00;4.30;;;10.80;99.90;;;;;;4905317;29;20508;-78
2023/01/11 16:27:23;;;;;;;12.43;4.20;;;10.70;99.90;;;;;;4904345;29;20451;-79
2023/01/11 16:29:50;;;;;;;11.50;3.80;;;10.70;99.90;;;;;;4911558;29;20436;-76
2023/01/11 16:32:25;;;;;;;21.53;6.80;;;10.60;99.90;;;;;;4883580;29;20515;-83
2023/01/11 16:34:52;;;;;;;18.23;6.23;;;10.60;99.90;;;;;;4901200;29;20468;-82
2023/01/11 16:37:37;;;;;;;16.67;5.90;;;10.60;99.90;;;;;;4898142;29;20495;-84
2023/01/11 16:40:43;;;;;;;12.93;3.43;;;10.60;99.90;;;;;;4913604;29;20445;-76
2023/01/11 16:43:28;;;;;;;9.80;3.80;;;10.60;99.90;;;;;;4841291;29;20818;-76
2023/01/11 16:45:54;;;;;;;9.07;4.43;;;10.60;99.90;;;;;;4857949;29;20446;-76
2023/01/11 16:48:23;;;;;;;14.23;5.53;;;10.60;99.90;;;;;;4886726;29;20960;-77
2023/01/11 16:51:02;;;;;;;16.13;5.40;;;10.50;99.90;;;;;;4907333;29;20290;-75
2023/01/11 16:53:29;;;;;;;11.07;4.00;;;10.50;99.90;;;;;;4903731;29;20436;-75
2023/01/11 16:56:05;;;;;;;10.33;4.53;;;10.50;99.90;;;;;;4910418;29;20432;-74
2023/01/11 16:58:36;;;;;;;39.97;14.30;;;10.50;99.90;;;;;;4912037;29;20466;-74
2023/01/11 17:01:05;;;;;;;31.17;11.30;;;10.60;99.90;;;;;;4898355;29;20424;-75
2023/01/11 17:03:35;;;;;;;8.27;3.80;;;10.70;99.90;;;;;;4896998;29;20479;-81
2023/01/11 17:06:33;;;;;;;25.30;5.00;;;10.80;99.90;;;;;;4898810;29;20966;-76
2023/01/11 17:09:04;;;;;;;18.40;3.93;;;10.90;99.90;;;;;;4885097;29;20487;-76
2023/01/11 17:11:35;;;;;;;30.63;5.27;;;10.80;99.90;;;;;;4910640;29;20524;-76
2023/01/11 17:14:33;;;;;;;9.00;3.27;;;10.80;99.90;;;;;;4904125;29;20836;-76
2023/01/11 17:17:10;;;;;;;16.07;3.40;;;10.80;99.90;;;;;;4907648;29;20562;-76
2023/01/11 17:19:42;;;;;;;9.77;3.40;;;10.70;99.90;;;;;;4891695;29;20448;-75
2023/01/11 17:22:29;;;;;;;14.03;4.33;;;10.70;99.90;;;;;;4911069;29;20432;-77
2023/01/11 17:25:04;;;;;;;13.87;3.87;;;10.60;99.90;;;;;;4908156;29;20774;-78
2023/01/11 17:27:39;;;;;;;8.13;3.37;;;10.60;99.90;;;;;;4903309;29;20499;-76
2023/01/11 17:30:17;;;;;;;14.97;4.13;;;10.70;99.90;;;;;;4901179;29;20444;-76
2023/01/11 17:32:46;;;;;;;8.97;3.17;;;10.60;99.90;;;;;;4909921;29;20866;-76
2023/01/11 17:35:16;;;;;;;11.90;4.60;;;10.70;99.90;;;;;;4916605;29;20435;-76
2023/01/11 17:37:47;;;;;;;14.07;2.90;;;10.70;99.90;;;;;;4895244;29;20494;-78
2023/01/11 17:40:31;;;;;;;10.97;3.70;;;10.80;99.90;;;;;;4909564;29;20527;-79
2023/01/11 17:46:06;;;;;;;9.97;3.53;;;10.80;99.90;;;;;;4909278;29;20459;-78